Time;durP1;ratioP1;P1;durP2;ratioP2;P2;SDS_P1;SDS_P2;PMS_P1;PMS_P2;Temp;Humidity;BMP_temperature;BMP_pressure;BME280_temperature;BME280_humidity;BME280_pressure;Samples;Min_cycle;Max_cycle;Signal;HPM_P1;HPM_P2
2024/03/13 00:00:15;;;;;;;0.60;0.60;;;;;;;5.15;100.00;96790.47;29396;212;63009;-61
2024/03/13 00:00:47;;;;;;;0.60;0.60;;;;;;;5.17;100.00;96792.91;29396;244;63004;-63
2024/03/13 00:01:18;;;;;;;0.50;0.50;;;;;;;5.17;100.00;96793.72;29395;204;64013;-63
2024/03/13 00:01:53;;;;;;;0.60;0.60;;;;;;;5.18;100.00;96787.28;29396;247;63004;-61
2024/03/13 00:02:25;;;;;;;0.60;0.60;;;;;;;5.15;100.00;96790.47;29396;223;63009;-61
2024/03/13 00:02:58;;;;;;;0.60;0.60;;;;;;;5.12;100.00;96785.63;29396;227;63004;-60
2024/03/13 00:03:32;;;;;;;0.60;0.60;;;;;;;5.12;100.00;96790.19;29396;231;63008;-59
2024/03/13 00:04:05;;;;;;;0.60;0.60;;;;;;;5.10;100.00;96779.69;29396;262;63005;-62
2024/03/13 00:04:47;;;;;;;0.50;0.50;;;;;;;5.09;100.00;96780.75;29396;266;63009;-64
2024/03/13 00:05:22;;;;;;;0.60;0.60;;;;;;;5.09;100.00;96775.38;29396;232;63005;-62
2024/03/13 00:05:55;;;;;;;0.50;0.50;;;;;;;5.09;100.00;96777.25;29397;251;63009;-64
2024/03/13 00:06:28;;;;;;;0.50;0.50;;;;;;;5.10;100.00;96778.88;29395;236;64009;-65
2024/03/13 00:06:59;;;;;;;0.60;0.60;;;;;;;5.10;100.00;96774.31;29397;225;63009;-65
2024/03/13 00:07:31;;;;;;;0.60;0.60;;;;;;;5.10;100.00;96779.69;29395;288;63005;-63
2024/03/13 00:08:07;;;;;;;0.50;0.50;;;;;;;5.10;100.00;96776.19;29397;215;63014;-65
2024/03/13 00:08:39;;;;;;;0.60;0.60;;;;;;;5.08;100.00;96779.13;29397;200;63004;-65
2024/03/13 00:09:12;;;;;;;0.50;0.50;;;;;;;5.07;100.00;96777.53;29395;290;63009;-65
2024/03/13 00:09:46;;;;;;;0.60;0.60;;;;;;;5.05;100.00;96774.28;29395;197;63004;-64
2024/03/13 00:10:18;;;;;;;0.60;0.60;;;;;;;5.02;100.00;96772.09;29395;232;63009;-65
2024/03/13 00:10:53;;;;;;;0.50;0.50;;;;;;;5.01;100.00;96773.19;29395;265;63004;-59
2024/03/13 00:11:27;;;;;;;0.50;0.50;;;;;;;4.98;100.00;96771.81;29395;218;63009;-67
2024/03/13 00:11:59;;;;;;;0.52;0.52;;;;;;;4.97;100.00;96775.56;29393;236;64009;-65
2024/03/13 00:12:30;;;;;;;0.60;0.60;;;;;;;4.95;100.00;96779.59;29395;236;63009;-63
2024/03/13 00:13:02;;;;;;;0.50;0.50;;;;;;;4.94;100.00;96777.97;29395;250;63005;-65
2024/03/13 00:13:34;;;;;;;0.60;0.60;;;;;;;4.92;100.00;96769.34;29395;220;63009;-64
2024/03/13 00:14:06;;;;;;;0.60;0.60;;;;;;;4.90;100.00;96771.47;29395;212;63005;-66
2024/03/13 00:14:37;;;;;;;0.50;0.50;;;;;;;4.88;100.00;96773.62;29395;233;63009;-60
2024/03/13 00:15:10;;;;;;;0.60;0.60;;;;;;;4.88;100.00;96768.25;29395;265;63005;-70
2024/03/13 00:15:42;;;;;;;0.55;0.55;;;;;;;4.87;100.00;96772.00;29395;220;63009;-66
2024/03/13 00:16:15;;;;;;;0.50;0.50;;;;;;;4.90;100.00;96768.78;29395;231;63004;-69
2024/03/13 00:16:46;;;;;;;0.60;0.60;;;;;;;4.90;100.00;96769.59;29395;198;63009;-67
2024/03/13 00:17:21;;;;;;;0.60;0.60;;;;;;;4.89;100.00;96769.87;29393;218;64009;-68
2024/03/13 00:17:53;;;;;;;0.55;0.55;;;;;;;4.87;100.00;96767.44;29395;257;63009;-67
2024/03/13 00:18:25;;;;;;;0.60;0.60;;;;;;;4.86;100.00;96765.81;29395;235;63004;-66
2024/03/13 00:18:57;;;;;;;0.60;0.60;;;;;;;4.85;100.00;96772.25;29395;261;63009;-68
2024/03/13 00:19:29;;;;;;;1.00;1.00;;;;;;;4.87;100.00;96772.00;29395;278;63009;-65
2024/03/13 00:20:02;;;;;;;0.50;0.50;;;;;;;4.89;100.00;96769.87;29395;203;63009;-68
2024/03/13 00:20:34;;;;;;;0.50;0.50;;;;;;;4.88;100.00;96766.38;29395;230;63005;-69
2024/03/13 00:21:05;;;;;;;0.60;0.60;;;;;;;4.89;100.00;96772.56;29395;210;63009;-67
2024/03/13 00:21:38;;;;;;;0.60;0.60;;;;;;;4.90;100.00;96769.59;29395;216;63005;-68
2024/03/13 00:22:12;;;;;;;0.60;0.60;;;;;;;4.90;100.00;96768.78;29395;228;63009;-67
2024/03/13 00:22:44;;;;;;;0.60;0.60;;;;;;;4.90;100.00;96766.09;29393;308;64009;-65
2024/03/13 00:23:16;;;;;;;0.60;0.60;;;;;;;4.87;100.00;96766.63;29395;212;63020;-67
2024/03/13 00:23:47;;;;;;;0.60;0.60;;;;;;;4.84;100.00;96761.78;29395;243;63004;-65
2024/03/13 00:24:18;;;;;;;0.60;0.60;;;;;;;4.85;100.00;96766.09;29395;198;63009;-69
2024/03/13 00:24:52;;;;;;;0.60;0.60;;;;;;;4.88;100.00;96768.25;29395;236;63004;-77
2024/03/13 00:25:24;;;;;;;0.60;0.60;;;;;;;4.90;100.00;96763.41;29395;222;63009;-70
2024/03/13 00:25:56;;;;;;;0.62;0.62;;;;;;;4.89;100.00;96769.87;29395;202;63016;-76
2024/03/13 00:26:27;;;;;;;0.60;0.60;;;;;;;4.88;100.00;96754.81;29394;198;63008;-72
2024/03/13 00:26:58;;;;;;;0.60;0.60;;;;;;;4.85;100.00;96763.41;29394;205;63005;-70
2024/03/13 00:27:34;;;;;;;2.85;1.58;;;;;;;4.81;100.00;96756.94;29395;237;63009;-68
2024/03/13 00:28:07;;;;;;;0.60;0.60;;;;;;;4.77;100.00;96761.19;29393;202;64009;-71
2024/03/13 00:28:39;;;;;;;0.60;0.60;;;;;;;4.73;100.00;96766.28;29395;252;63009;-69
2024/03/13 00:29:11;;;;;;;0.60;0.60;;;;;;;4.69;100.00;96757.94;29395;202;63005;-70
2024/03/13 00:29:46;;;;;;;0.60;0.60;;;;;;;4.67;100.00;96754.69;29395;199;63025;-70
2024/03/13 00:30:17;;;;;;;0.60;0.60;;;;;;;4.66;100.00;96755.75;29395;252;63005;-69
2024/03/13 00:30:48;;;;;;;0.60;0.60;;;;;;;4.66;100.00;96755.75;29395;224;63009;-71
2024/03/13 00:31:20;;;;;;;0.60;0.60;;;;;;;4.64;100.00;96757.88;29395;210;63004;-70
2024/03/13 00:31:55;;;;;;;0.60;0.60;;;;;;;4.62;100.00;96760.00;29395;214;63009;-71
2024/03/13 00:32:28;;;;;;;0.60;0.60;;;;;;;4.66;100.00;96754.94;29395;263;63004;-69
2024/03/13 00:32:59;;;;;;;0.60;0.60;;;;;;;4.63;100.00;96750.88;29395;196;63009;-69
2024/03/13 00:33:31;;;;;;;0.60;0.60;;;;;;;4.62;100.00;96754.63;29393;292;64008;-73
2024/03/13 00:34:04;;;;;;;0.60;0.60;;;;;;;4.61;100.00;96750.34;29395;252;63009;-71
2024/03/13 00:34:37;;;;;;;0.60;0.60;;;;;;;4.59;100.00;96749.78;29395;257;63005;-70
2024/03/13 00:35:08;;;;;;;0.50;0.50;;;;;;;4.60;100.00;96746.03;29395;205;63009;-75
2024/03/13 00:35:40;;;;;;;0.60;0.60;;;;;;;4.63;100.00;96750.88;29395;209;63005;-73
2024/03/13 00:36:11;;;;;;;0.60;0.60;;;;;;;4.63;100.00;96750.88;29395;198;63009;-71
2024/03/13 00:36:45;;;;;;;0.60;0.60;;;;;;;4.63;100.00;96744.69;29395;212;63005;-71
2024/03/13 00:37:18;;;;;;;0.60;0.60;;;;;;;4.62;100.00;96748.47;29395;218;63009;-76
2024/03/13 00:37:49;;;;;;;0.60;0.60;;;;;;;4.62;100.00;96743.91;29395;341;63005;-73
2024/03/13 00:38:25;;;;;;;0.60;0.60;;;;;;;4.62;100.00;96746.59;29395;216;63009;-71
2024/03/13 00:38:58;;;;;;;0.60;0.60;;;;;;;4.63;100.00;96745.50;29393;204;64009;-73
2024/03/13 00:39:33;;;;;;;0.60;0.60;;;;;;;4.64;100.00;96752.50;29395;217;63009;-77
2024/03/13 00:40:07;;;;;;;0.60;0.60;;;;;;;4.66;100.00;96745.00;29395;248;63004;-76
2024/03/13 00:40:39;;;;;;;0.60;0.60;;;;;;;4.66;100.00;96744.19;29395;212;63009;-73
2024/03/13 00:41:10;;;;;;;0.57;0.57;;;;;;;4.66;100.00;96749.56;29395;206;63004;-71
2024/03/13 00:41:44;;;;;;;0.60;0.60;;;;;;;4.66;100.00;96744.19;29393;253;64014;-70
2024/03/13 00:42:16;;;;;;;0.50;0.50;;;;;;;4.62;100.00;96738.53;29395;202;63005;-73
2024/03/13 00:42:47;;;;;;;0.60;0.60;;;;;;;4.61;100.00;96747.66;29395;239;63009;-72
2024/03/13 00:43:20;;;;;;;0.60;0.60;;;;;;;4.61;100.00;96742.28;29395;233;63009;-72
2024/03/13 00:43:53;;;;;;;0.60;0.60;;;;;;;4.58;100.00;96737.41;29395;240;63009;-71
2024/03/13 00:44:25;;;;;;;4.55;4.35;;;;;;;4.63;100.00;96742.81;29395;351;63008;-73
2024/03/13 00:44:56;;;;;;;0.60;0.60;;;;;;;4.64;100.00;96736.38;29395;222;63009;-69
2024/03/13 00:45:27;;;;;;;0.50;0.50;;;;;;;4.67;100.00;96741.25;29395;222;63005;-77
2024/03/13 00:45:59;;;;;;;0.60;0.60;;;;;;;4.79;100.00;96732.19;29395;215;63009;-69
2024/03/13 00:46:34;;;;;;;0.57;0.57;;;;;;;4.81;100.00;96727.38;29395;390;63009;-72
2024/03/13 00:47:11;;;;;;;0.60;0.60;;;;;;;4.78;100.00;96725.19;29394;261;64013;-71
2024/03/13 00:47:43;;;;;;;0.60;0.60;;;;;;;4.74;100.00;96724.91;29395;250;63004;-73
2024/03/13 00:48:17;;;;;;;0.60;0.60;;;;;;;4.70;100.00;96729.97;29395;206;63009;-84
2024/03/13 00:48:50;;;;;;;0.60;0.60;;;;;;;4.70;100.00;96724.59;29395;226;63007;-75
2024/03/13 00:49:25;;;;;;;0.55;0.55;;;;;;;4.75;100.00;96731.09;29395;223;63009;-76
2024/03/13 00:49:56;;;;;;;0.60;0.60;;;;;;;4.77;100.00;96723.56;29395;249;63005;-74
2024/03/13 00:50:32;;;;;;;0.50;0.50;;;;;;;4.72;100.00;96724.34;29395;228;63009;-74
2024/03/13 00:51:04;;;;;;;0.60;0.60;;;;;;;4.67;100.00;96725.13;29394;212;64009;-57
2024/03/13 00:51:36;;;;;;;0.60;0.60;;;;;;;4.65;100.00;96727.25;29395;225;63009;-75
2024/03/13 00:52:07;;;;;;;0.60;0.60;;;;;;;4.64;100.00;96724.81;29395;199;63005;-78
2024/03/13 00:52:39;;;;;;;0.60;0.60;;;;;;;4.64;100.00;96724.81;29395;229;63009;-77
2024/03/13 00:53:10;;;;;;;0.60;0.60;;;;;;;4.63;100.00;96723.19;29395;214;63004;-82
2024/03/13 00:53:45;;;;;;;0.60;0.60;;;;;;;4.63;100.00;96724.00;29395;212;63004;-80
2024/03/13 00:54:17;;;;;;;0.60;0.60;;;;;;;4.62;100.00;96725.09;29395;197;63009;-76
2024/03/13 00:54:49;;;;;;;0.60;0.60;;;;;;;4.61;100.00;96720.78;29395;285;63009;-74
2024/03/13 00:55:20;;;;;;;0.60;0.60;;;;;;;4.59;100.00;96717.53;29395;213;63004;-73
2024/03/13 00:55:51;;;;;;;0.50;0.50;;;;;;;4.59;100.00;96722.91;29394;271;64030;-78
2024/03/13 00:56:23;;;;;;;0.60;0.60;;;;;;;4.61;100.00;96718.09;29395;319;63004;-75
2024/03/13 00:56:56;;;;;;;0.60;0.60;;;;;;;4.65;100.00;96721.88;29395;239;63019;-73
2024/03/13 00:57:31;;;;;;;0.60;0.60;;;;;;;4.64;100.00;96720.25;29395;205;63005;-73
2024/03/13 00:58:03;;;;;;;0.57;0.57;;;;;;;4.68;100.00;96710.63;29395;206;63009;-76
2024/03/13 00:58:37;;;;;;;0.60;0.60;;;;;;;4.67;100.00;96724.31;29395;265;63005;-77
2024/03/13 00:59:11;;;;;;;0.60;0.60;;;;;;;4.65;100.00;96721.88;29395;202;63009;-78
2024/03/13 00:59:43;;;;;;;0.50;0.50;;;;;;;4.68;100.00;96710.63;29395;208;63005;-72
2024/03/13 01:00:18;;;;;;;0.60;0.60;;;;;;;4.70;100.00;96718.41;29395;218;63023;-79
2024/03/13 01:00:49;;;;;;;0.55;0.55;;;;;;;4.78;100.00;96709.06;29395;220;63017;-75
2024/03/13 01:01:21;;;;;;;0.60;0.60;;;;;;;4.80;100.00;96706.94;29394;198;64013;-78
2024/03/13 01:01:53;;;;;;;4.47;4.28;;;;;;;4.77;100.00;96712.81;29395;230;63004;-77
2024/03/13 01:02:25;;;;;;;0.60;0.60;;;;;;;4.74;100.00;96716.84;29395;373;63009;-71
2024/03/13 01:02:57;;;;;;;0.60;0.60;;;;;;;4.69;100.00;96706.84;29395;243;63004;-71
2024/03/13 01:03:29;;;;;;;0.60;0.60;;;;;;;4.65;100.00;96721.06;29395;390;63009;-76
2024/03/13 01:04:02;;;;;;;0.52;0.52;;;;;;;4.63;100.00;96712.44;29395;230;63005;-74
2024/03/13 01:04:34;;;;;;;0.60;0.60;;;;;;;4.62;100.00;96716.22;29395;234;63009;-74
2024/03/13 01:05:10;;;;;;;0.60;0.60;;;;;;;4.60;100.00;96719.16;29395;200;63005;-74
2024/03/13 01:05:41;;;;;;;0.60;0.60;;;;;;;4.61;100.00;96715.41;29395;222;63022;-74
2024/03/13 01:06:14;;;;;;;0.60;0.60;;;;;;;4.62;100.00;96711.66;29395;204;63005;-77
2024/03/13 01:06:45;;;;;;;0.55;0.55;;;;;;;4.63;100.00;96717.81;29394;218;64013;-78
2024/03/13 01:07:16;;;;;;;0.60;0.60;;;;;;;4.61;100.00;96720.78;29395;210;63019;-77
2024/03/13 01:07:49;;;;;;;0.60;0.60;;;;;;;4.60;100.00;96716.47;29395;221;63009;-78
2024/03/13 01:08:27;;;;;;;0.60;0.60;;;;;;;4.62;100.00;96717.03;29395;215;63004;-77
2024/03/13 01:08:58;;;;;;;0.60;0.60;;;;;;;4.62;100.00;96727.78;29395;237;63009;-56
2024/03/13 01:09:30;;;;;;;0.60;0.60;;;;;;;4.61;100.00;96717.28;29395;228;63004;-80
2024/03/13 01:10:03;;;;;;;0.60;0.60;;;;;;;4.61;100.00;96726.16;29395;250;63009;-72
2024/03/13 01:10:35;;;;;;;0.60;0.60;;;;;;;4.60;100.00;96719.16;29395;208;63004;-71
2024/03/13 01:11:07;;;;;;;0.50;0.50;;;;;;;4.58;100.00;96715.09;29395;310;63009;-75
2024/03/13 01:11:38;;;;;;;0.60;0.60;;;;;;;4.57;100.00;96719.66;29395;251;63005;-74
2024/03/13 01:12:09;;;;;;;0.60;0.60;;;;;;;4.56;100.00;96726.09;29394;255;64014;-75
2024/03/13 01:12:41;;;;;;;0.60;0.60;;;;;;;4.56;100.00;96722.63;29395;216;63005;-76
2024/03/13 01:13:12;;;;;;;0.60;0.60;;;;;;;4.61;100.00;96725.34;29395;267;63009;-75
2024/03/13 01:13:47;;;;;;;0.60;0.60;;;;;;;4.60;100.00;96724.53;29395;208;63005;-74
2024/03/13 01:14:20;;;;;;;0.60;0.60;;;;;;;4.58;100.00;96718.59;29395;287;63005;-77
2024/03/13 01:14:52;;;;;;;0.60;0.60;;;;;;;4.57;100.00;96716.97;29395;295;63005;-73
2024/03/13 01:15:24;;;;;;;0.50;0.50;;;;;;;4.57;100.00;96718.84;29395;222;63009;-77
2024/03/13 01:15:56;;;;;;;0.68;0.68;;;;;;;4.61;100.00;96719.97;29395;247;63004;-78
2024/03/13 01:16:27;;;;;;;0.60;0.60;;;;;;;4.60;100.00;96719.16;29395;239;63020;-75
2024/03/13 01:17:00;;;;;;;0.60;0.60;;;;;;;4.61;100.00;96715.41;29395;372;63004;-79
2024/03/13 01:17:35;;;;;;;0.50;0.50;;;;;;;4.66;100.00;96712.75;29394;207;64013;-72
2024/03/13 01:18:09;;;;;;;0.60;0.60;;;;;;;4.66;100.00;96709.25;29395;202;63004;-78
2024/03/13 01:18:41;;;;;;;0.60;0.60;;;;;;;4.65;100.00;96707.63;29395;197;63009;-77
2024/03/13 01:19:13;;;;;;;0.60;0.60;;;;;;;4.62;100.00;96716.22;29395;229;63005;-73
2024/03/13 01:19:48;;;;;;;0.60;0.60;;;;;;;4.60;100.00;96724.53;29395;207;63009;-55
2024/03/13 01:20:20;;;;;;;0.60;0.60;;;;;;;4.60;100.00;96715.66;29395;234;63005;-56
2024/03/13 01:20:51;;;;;;;0.50;0.50;;;;;;;4.59;100.00;96714.03;29395;234;63009;-75
2024/03/13 01:21:22;;;;;;;0.60;0.60;;;;;;;4.56;100.00;96712.69;29395;240;63005;-76
2024/03/13 01:22:03;;;;;;;0.60;0.60;;;;;;;4.55;100.00;96721.81;29395;242;63009;-79
2024/03/13 01:22:34;;;;;;;0.60;0.60;;;;;;;4.55;100.00;96719.12;29416;212;64009;-78
2024/03/13 01:23:06;;;;;;;0.60;0.60;;;;;;;4.54;100.00;96725.56;29395;246;63009;-79
2024/03/13 01:23:40;;;;;;;0.60;0.60;;;;;;;4.53;100.00;96723.94;29395;267;63004;-76
2024/03/13 01:24:12;;;;;;;0.60;0.60;;;;;;;4.51;100.00;96726.06;29395;213;63026;-77
2024/03/13 01:24:45;;;;;;;0.60;0.60;;;;;;;4.52;100.00;96716.94;29395;237;63000;-75
2024/03/13 01:25:19;;;;;;;0.60;0.60;;;;;;;4.53;100.00;96718.56;29395;215;63011;-57
2024/03/13 01:25:53;;;;;;;0.57;0.57;;;;;;;4.53;100.00;96723.13;29395;206;63004;-79
2024/03/13 01:26:25;;;;;;;0.60;0.60;;;;;;;4.53;100.00;96720.44;29395;237;63009;-82
2024/03/13 01:26:56;;;;;;;0.60;0.60;;;;;;;4.54;100.00;96720.19;29395;247;63005;-77
2024/03/13 01:27:28;;;;;;;0.60;0.60;;;;;;;4.52;100.00;96719.62;29395;259;63009;-77
2024/03/13 01:28:00;;;;;;;0.60;0.60;;;;;;;4.50;100.00;96724.47;29394;249;64009;-72
2024/03/13 01:28:36;;;;;;;0.60;0.60;;;;;;;4.49;100.00;96722.87;29395;208;63009;-79
2024/03/13 01:29:08;;;;;;;0.60;0.60;;;;;;;4.49;100.00;96727.44;29395;210;63005;-79
2024/03/13 01:29:46;;;;;;;0.60;0.60;;;;;;;4.49;100.00;96722.06;29395;344;63009;-75
2024/03/13 01:30:18;;;;;;;0.60;0.60;;;;;;;4.49;100.00;96727.44;29395;235;63004;-72
2024/03/13 01:30:52;;;;;;;0.60;0.60;;;;;;;4.49;100.00;96724.75;29395;320;63018;-75
2024/03/13 01:31:24;;;;;;;0.60;0.60;;;;;;;4.50;100.00;96724.47;29395;208;63004;-77
2024/03/13 01:31:58;;;;;;;0.60;0.60;;;;;;;4.50;100.00;96721.78;29395;246;63009;-77
2024/03/13 01:32:30;;;;;;;0.60;0.60;;;;;;;4.55;100.00;96721.00;29395;208;63004;-79
2024/03/13 01:33:02;;;;;;;0.60;0.60;;;;;;;4.54;100.00;96725.56;29394;220;64013;-73
2024/03/13 01:33:35;;;;;;;0.60;0.60;;;;;;;4.54;100.00;96719.38;29395;258;63004;-78
2024/03/13 01:34:06;;;;;;;0.60;0.60;;;;;;;4.54;100.00;96722.87;29395;245;63026;-76
2024/03/13 01:34:37;;;;;;;0.60;0.60;;;;;;;4.53;100.00;96718.56;29395;198;63005;-75
2024/03/13 01:35:12;;;;;;;0.60;0.60;;;;;;;4.55;100.00;96716.44;29395;203;63005;-78
2024/03/13 01:35:43;;;;;;;0.60;0.60;;;;;;;4.57;100.00;96714.28;29395;209;63005;-77
2024/03/13 01:36:18;;;;;;;0.60;0.60;;;;;;;4.56;100.00;96723.44;29395;202;63009;-78
2024/03/13 01:38:29;;;;;;;0.60;0.60;;;;;;;4.50;100.00;96716.41;29394;237;64009;-76
2024/03/13 01:39:00;;;;;;;0.60;0.60;;;;;;;4.50;100.00;96716.41;29395;292;63009;-76
2024/03/13 01:39:31;;;;;;;0.60;0.60;;;;;;;4.49;100.00;96717.50;29395;219;63004;-77
2024/03/13 01:40:06;;;;;;;0.60;0.60;;;;;;;4.53;100.00;96718.56;29395;220;63009;-75
2024/03/13 01:54:54;;;;;;;0.70;0.70;;;;;;;4.40;100.00;96727.09;29377;215;125008;-75
2024/03/13 01:55:28;;;;;;;0.60;0.60;;;;;;;4.40;100.00;96732.47;29395;236;63005;-74
2024/03/13 01:56:15;;;;;;;0.60;0.60;;;;;;;4.43;100.00;96728.44;29395;287;63009;-75
2024/03/13 01:56:59;;;;;;;0.60;0.60;;;;;;;4.44;100.00;96720.12;29395;205;63005;-57
2024/03/13 01:57:56;;;;;;;0.60;0.60;;;;;;;4.45;100.00;96727.12;29394;219;64013;-78
2024/03/13 01:58:40;;;;;;;0.60;0.60;;;;;;;4.48;100.00;96726.63;29395;202;63005;-74
2024/03/13 01:59:23;;;;;;;0.60;0.60;;;;;;;4.50;100.00;96719.09;29395;214;63009;-69
2024/03/13 02:02:25;;;;;;;0.60;0.60;;;;;;;4.61;100.00;96726.16;29395;368;63016;-70
2024/03/13 02:02:56;;;;;;;0.60;0.60;;;;;;;4.62;100.00;96721.59;29394;237;64009;-68
2024/03/13 02:03:31;;;;;;;0.60;0.60;;;;;;;4.65;100.00;96718.38;29395;203;63009;-74
2024/03/13 02:04:03;;;;;;;0.60;0.60;;;;;;;4.63;100.00;96717.81;29395;294;63005;-78
2024/03/13 02:04:34;;;;;;;0.60;0.60;;;;;;;4.62;100.00;96722.41;29395;293;63009;-71
2024/03/13 02:05:07;;;;;;;0.60;0.60;;;;;;;4.60;100.00;96719.16;29395;197;63005;-75
2024/03/13 02:05:40;;;;;;;0.60;0.60;;;;;;;4.63;100.00;96712.44;29395;212;63009;-76
2024/03/13 02:06:11;;;;;;;0.60;0.60;;;;;;;4.63;100.00;96707.09;29395;228;63005;-74
2024/03/13 02:06:45;;;;;;;0.60;0.60;;;;;;;4.64;100.00;96720.25;29395;202;63009;-74
2024/03/13 02:07:24;;;;;;;0.57;0.57;;;;;;;4.64;100.00;96708.69;29395;215;63004;-71
2024/03/13 02:07:55;;;;;;;0.60;0.60;;;;;;;4.64;100.00;96704.12;29395;249;63009;-69
2024/03/13 02:08:34;;;;;;;0.65;0.65;;;;;;;4.60;100.00;96703.03;29394;212;64009;-71
2024/03/13 02:09:06;;;;;;;0.60;0.60;;;;;;;4.57;100.00;96719.66;29395;205;63009;-70
2024/03/13 02:09:38;;;;;;;0.60;0.60;;;;;;;4.54;100.00;96717.50;29395;327;63010;-73
2024/03/13 02:10:10;;;;;;;0.60;0.60;;;;;;;4.51;100.00;96720.69;29395;212;63008;-70
2024/03/13 02:10:42;;;;;;;0.60;0.60;;;;;;;4.49;100.00;96717.50;29395;220;63005;-78
2024/03/13 02:11:13;;;;;;;0.60;0.60;;;;;;;4.49;100.00;96709.44;29395;202;63009;-55
2024/03/13 02:11:44;;;;;;;0.60;0.60;;;;;;;4.49;100.00;96714.81;29395;209;63005;-73
2024/03/13 02:12:16;;;;;;;0.60;0.60;;;;;;;4.49;100.00;96712.12;29395;216;63009;-72
2024/03/13 02:13:21;;;;;;;0.60;0.60;;;;;;;4.46;100.00;96718.00;29395;214;63005;-56
2024/03/13 02:13:52;;;;;;;0.60;0.60;;;;;;;4.44;100.00;96711.25;29394;239;64013;-76
2024/03/13 02:14:23;;;;;;;0.55;0.55;;;;;;;4.44;100.00;96713.94;29395;238;63005;-79
2024/03/13 02:14:55;;;;;;;0.60;0.60;;;;;;;4.42;100.00;96708.84;29395;225;63004;-75
2024/03/13 02:15:26;;;;;;;0.60;0.60;;;;;;;4.42;100.00;96708.84;29395;253;63004;-71
2024/03/13 02:15:57;;;;;;;0.60;0.60;;;;;;;4.46;100.00;96712.62;29395;199;63009;-72
2024/03/13 02:16:30;;;;;;;0.60;0.60;;;;;;;4.47;100.00;96708.87;29395;222;63007;-77
2024/03/13 02:17:01;;;;;;;0.60;0.60;;;;;;;4.47;100.00;96706.19;29395;302;63009;-74
2024/03/13 02:17:37;;;;;;;0.60;0.60;;;;;;;4.44;100.00;96701.31;29395;212;63004;-77
2024/03/13 02:18:21;;;;;;;0.55;0.55;;;;;;;4.43;100.00;96712.34;29395;305;63009;-56
2024/03/13 02:18:56;;;;;;;0.60;0.60;;;;;;;4.42;100.00;96706.16;29394;219;64008;-74
2024/03/13 02:19:34;;;;;;;0.60;0.60;;;;;;;4.41;100.00;96704.53;29395;202;63009;-74
2024/03/13 02:20:06;;;;;;;0.60;0.60;;;;;;;4.41;100.00;96699.16;29395;231;63005;-74
2024/03/13 02:20:43;;;;;;;0.60;0.60;;;;;;;4.41;100.00;96701.84;29395;233;63019;-55
2024/03/13 02:21:14;;;;;;;0.60;0.60;;;;;;;4.43;100.00;96704.28;29395;229;63005;-75
2024/03/13 02:21:52;;;;;;;0.60;0.60;;;;;;;4.44;100.00;96692.47;29395;213;63009;-73
2024/03/13 02:22:25;;;;;;;0.60;0.60;;;;;;;4.43;100.00;96697.03;29395;224;63004;-76
2024/03/13 02:23:04;;;;;;;0.60;0.60;;;;;;;4.43;100.00;96696.22;29395;305;63009;-76
2024/03/13 02:23:35;;;;;;;0.60;0.60;;;;;;;4.44;100.00;96689.78;29395;219;63004;-74
2024/03/13 02:24:06;;;;;;;0.60;0.60;;;;;;;4.46;100.00;96693.81;29394;196;64013;-71
2024/03/13 02:24:38;;;;;;;0.60;0.60;;;;;;;4.47;100.00;96692.75;29395;232;63004;-75
2024/03/13 02:25:09;;;;;;;0.60;0.60;;;;;;;4.46;100.00;96699.19;29395;230;63008;-78
2024/03/13 02:25:40;;;;;;;0.60;0.60;;;;;;;4.49;100.00;96696.00;29395;218;63005;-73
2024/03/13 02:26:12;;;;;;;0.60;0.60;;;;;;;4.54;100.00;96692.50;29395;230;63009;-71
2024/03/13 02:26:43;;;;;;;0.60;0.60;;;;;;;4.55;100.00;96683.38;29395;210;63005;-72
2024/03/13 02:27:14;;;;;;;0.60;0.60;;;;;;;4.54;100.00;96687.94;29395;199;63009;-74
2024/03/13 02:27:52;;;;;;;0.60;0.60;;;;;;;4.56;100.00;96685.00;29395;198;63005;-56
2024/03/13 02:28:33;;;;;;;0.60;0.60;;;;;;;4.53;100.00;96690.88;29395;209;63009;-73
2024/03/13 02:29:05;;;;;;;0.60;0.60;;;;;;;4.55;100.00;96684.19;29395;218;63004;-71
2024/03/13 02:29:41;;;;;;;0.60;0.60;;;;;;;4.56;100.00;96688.50;29394;379;64013;-70
2024/03/13 02:30:13;;;;;;;0.60;0.60;;;;;;;4.55;100.00;96683.38;29395;261;63004;-76
2024/03/13 02:30:45;;;;;;;0.60;0.60;;;;;;;4.55;100.00;96688.75;29395;291;63026;-75
2024/03/13 02:31:16;;;;;;;0.60;0.60;;;;;;;4.57;100.00;96681.25;29395;236;63004;-71
2024/03/13 02:31:48;;;;;;;0.60;0.60;;;;;;;4.60;100.00;96692.28;29395;323;63008;-77
2024/03/13 02:32:20;;;;;;;0.60;0.60;;;;;;;4.59;100.00;96679.91;29395;217;63004;-74
2024/03/13 02:32:52;;;;;;;0.60;0.60;;;;;;;4.56;100.00;96691.19;29395;221;63008;-73
2024/03/13 02:33:24;;;;;;;0.60;0.60;;;;;;;4.53;100.00;96680.94;29395;221;63005;-80
2024/03/13 02:33:55;;;;;;;0.60;0.60;;;;;;;4.51;100.00;96688.44;29395;239;63009;-71
2024/03/13 02:34:27;;;;;;;0.60;0.60;;;;;;;4.49;100.00;96685.25;29395;304;63005;-75
2024/03/13 02:34:58;;;;;;;0.60;0.60;;;;;;;4.49;100.00;96685.25;29394;198;64013;-72
2024/03/13 02:35:32;;;;;;;0.60;0.60;;;;;;;4.50;100.00;96683.38;29395;280;63005;-73
2024/03/13 02:36:05;;;;;;;0.50;0.50;;;;;;;4.48;100.00;96680.94;29395;308;63009;-74
2024/03/13 02:36:36;;;;;;;0.60;0.60;;;;;;;4.47;100.00;96682.00;29395;242;63004;-70
2024/03/13 02:37:08;;;;;;;0.60;0.60;;;;;;;4.46;100.00;96690.31;29395;211;63009;-74
2024/03/13 02:37:43;;;;;;;0.60;0.60;;;;;;;4.44;100.00;96687.09;29395;375;63004;-70
2024/03/13 02:38:14;;;;;;;0.55;0.55;;;;;;;4.41;100.00;96685.72;29395;358;63009;-71
2024/03/13 02:38:46;;;;;;;0.60;0.60;;;;;;;4.41;100.00;96683.03;29395;255;63004;-76
2024/03/13 02:39:18;;;;;;;0.60;0.60;;;;;;;4.38;100.00;96687.03;29395;229;63025;-75
2024/03/13 02:39:49;;;;;;;0.60;0.60;;;;;;;4.40;100.00;96689.47;29395;214;63017;-72
2024/03/13 02:40:21;;;;;;;0.60;0.60;;;;;;;4.44;100.00;96685.22;29394;209;64014;-68
2024/03/13 02:40:53;;;;;;;0.60;0.60;;;;;;;4.44;100.00;96687.91;29395;214;63005;-71
2024/03/13 02:41:25;;;;;;;0.60;0.60;;;;;;;4.44;100.00;96685.22;29395;270;63009;-71
2024/03/13 02:41:57;;;;;;;0.60;0.60;;;;;;;4.46;100.00;96688.44;29395;222;63014;-73
2024/03/13 02:42:28;;;;;;;0.60;0.60;;;;;;;4.48;100.00;96689.00;29395;205;63027;-71
2024/03/13 02:42:59;;;;;;;0.60;0.60;;;;;;;4.48;100.00;96678.25;29395;219;63005;-70
2024/03/13 02:43:32;;;;;;;0.60;0.60;;;;;;;4.48;100.00;96683.63;29395;198;63009;-73
2024/03/13 02:44:03;;;;;;;0.60;0.60;;;;;;;4.47;100.00;96689.25;29395;202;63017;-69
2024/03/13 02:44:35;;;;;;;0.60;0.60;;;;;;;4.46;100.00;96680.38;29395;202;63015;-71
2024/03/13 02:45:07;;;;;;;0.50;0.50;;;;;;;4.46;100.00;96675.00;29395;227;63004;-70
2024/03/13 02:45:42;;;;;;;0.60;0.60;;;;;;;4.45;100.00;96676.09;29394;211;64013;-68
2024/03/13 02:46:13;;;;;;;0.60;0.60;;;;;;;4.45;100.00;96673.41;29395;320;63004;-71
2024/03/13 02:46:44;;;;;;;0.60;0.60;;;;;;;4.45;100.00;96677.97;29395;205;63008;-70
2024/03/13 02:47:18;;;;;;;0.60;0.60;;;;;;;4.46;100.00;96679.59;29395;205;63004;-72
2024/03/13 02:47:49;;;;;;;0.60;0.60;;;;;;;4.48;100.00;96688.19;29395;222;63009;-79
2024/03/13 02:48:24;;;;;;;0.60;0.60;;;;;;;4.50;100.00;96681.50;29395;205;63005;-70
2024/03/13 02:48:56;;;;;;;0.60;0.60;;;;;;;4.51;100.00;96679.59;29395;198;63009;-56
2024/03/13 02:49:27;;;;;;;0.60;0.60;;;;;;;4.50;100.00;96684.19;29395;274;63005;-71
2024/03/13 02:49:59;;;;;;;0.60;0.60;;;;;;;4.50;100.00;96681.50;29395;299;63009;-69
2024/03/13 02:50:30;;;;;;;0.60;0.60;;;;;;;4.49;100.00;96685.25;29395;238;63005;-71
2024/03/13 02:51:01;;;;;;;0.60;0.60;;;;;;;4.52;100.00;96684.69;29394;223;64013;-71
2024/03/13 02:51:32;;;;;;;0.60;0.60;;;;;;;4.51;100.00;96683.09;29395;267;63005;-73
2024/03/13 02:52:04;;;;;;;0.50;0.50;;;;;;;4.48;100.00;96678.25;29394;206;64013;-72
2024/03/13 02:52:36;;;;;;;0.60;0.60;;;;;;;4.47;100.00;96679.31;29395;212;63004;-73
2024/03/13 02:53:11;;;;;;;0.60;0.60;;;;;;;4.46;100.00;96677.69;29395;197;63018;-70
2024/03/13 02:53:42;;;;;;;0.57;0.57;;;;;;;4.43;100.00;96672.84;29395;205;63004;-74
2024/03/13 02:54:13;;;;;;;0.55;0.55;;;;;;;4.40;100.00;96681.41;29395;256;63023;-69
2024/03/13 02:54:44;;;;;;;0.60;0.60;;;;;;;4.42;100.00;96679.28;29395;196;63004;-71
2024/03/13 02:55:16;;;;;;;0.60;0.60;;;;;;;4.42;100.00;96671.22;29395;207;63009;-54
2024/03/13 02:55:47;;;;;;;0.60;0.60;;;;;;;4.41;100.00;96677.66;29395;208;63004;-73